Time;durP1;ratioP1;P1;durP2;ratioP2;P2;SDS_P1;SDS_P2;PMS_P1;PMS_P2;Temp;Humidity;BMP_temperature;BMP_pressure;BME280_temperature;BME280_humidity;BME280_pressure;Samples;Min_cycle;Max_cycle;Signal;HPM_P1;HPM_P2
2022/12/14 00:00:40;;;;;;;201.38;159.35;;;;;;;;;;5057358;28;20047;-74
2022/12/14 00:03:05;;;;;;;208.18;161.63;;;;;;;;;;5068472;28;20448;-75
2022/12/14 00:05:31;;;;;;;198.48;153.07;;;;;;;;;;5067981;28;20128;-74
2022/12/14 00:07:56;;;;;;;193.32;152.75;;;;;;;;;;5074759;28;20032;-76
2022/12/14 00:10:21;;;;;;;171.07;140.25;;;;;;;;;;5063955;28;20024;-75
2022/12/14 00:12:47;;;;;;;182.77;145.20;;;;;;;;;;5075623;28;20060;-76
2022/12/14 00:15:12;;;;;;;161.20;128.40;;;;;;;;;;5050392;28;20556;-76
2022/12/14 00:17:38;;;;;;;133.70;115.82;;;;;;;;;;5068190;28;20107;-76
2022/12/14 00:20:04;;;;;;;77.80;67.45;;;;;;;;;;5076243;28;20032;-72
2022/12/14 00:22:29;;;;;;;62.95;54.95;;;;;;;;;;5074069;28;20033;-75
2022/12/14 00:24:54;;;;;;;73.78;59.90;;;;;;;;;;5075045;28;20023;-73
2022/12/14 00:27:20;;;;;;;61.28;52.65;;;;;;;;;;5070645;28;20021;-74
2022/12/14 00:29:45;;;;;;;63.90;55.38;;;;;;;;;;5066447;28;20023;-76
2022/12/14 00:32:10;;;;;;;77.10;63.70;;;;;;;;;;5061926;28;20448;-75
2022/12/14 00:34:36;;;;;;;87.50;77.40;;;;;;;;;;5056570;28;20470;-73
2022/12/14 00:37:01;;;;;;;96.30;81.68;;;;;;;;;;5062005;28;21106;-77
2022/12/14 00:39:26;;;;;;;103.50;88.30;;;;;;;;;;5070623;28;20189;-74
2022/12/14 00:41:52;;;;;;;110.68;93.65;;;;;;;;;;5073994;28;20031;-74
2022/12/14 00:44:17;;;;;;;122.25;101.43;;;;;;;;;;5074403;28;20032;-74
2022/12/14 00:46:42;;;;;;;135.63;112.22;;;;;;;;;;5065700;28;20035;-73
2022/12/14 00:49:08;;;;;;;136.38;110.30;;;;;;;;;;5071257;28;20024;-75
2022/12/14 00:51:34;;;;;;;121.13;100.88;;;;;;;;;;5071174;28;20024;-74
2022/12/14 00:53:59;;;;;;;133.00;110.90;;;;;;;;;;5076519;28;20355;-76
2022/12/14 00:56:24;;;;;;;144.15;116.50;;;;;;;;;;5076275;28;20032;-74
2022/12/14 00:58:53;;;;;;;131.43;108.15;;;;;;;;;;5071944;28;20043;-74
2022/12/14 01:01:19;;;;;;;161.85;134.00;;;;;;;;;;5066023;28;20032;-78
2022/12/14 01:03:44;;;;;;;184.98;149.18;;;;;;;;;;5066119;28;20032;-74
2022/12/14 01:06:14;;;;;;;164.98;131.80;;;;;;;;;;5075602;28;20035;-74
2022/12/14 01:08:40;;;;;;;155.77;126.75;;;;;;;;;;5059805;28;20035;-73
2022/12/14 01:11:06;;;;;;;155.73;127.68;;;;;;;;;;5072560;28;20020;-77
2022/12/14 01:13:31;;;;;;;155.65;132.20;;;;;;;;;;5074258;28;20047;-76
2022/12/14 01:16:01;;;;;;;156.40;134.50;;;;;;;;;;5070471;28;20024;-74
2022/12/14 01:18:26;;;;;;;152.43;130.18;;;;;;;;;;5064115;28;20028;-76
2022/12/14 01:20:51;;;;;;;101.45;90.00;;;;;;;;;;5071659;28;20036;-80
2022/12/14 01:23:17;;;;;;;90.28;75.88;;;;;;;;;;5073920;28;20036;-74
2022/12/14 01:25:42;;;;;;;83.55;70.38;;;;;;;;;;5073729;28;20042;-75
2022/12/14 01:28:07;;;;;;;84.13;71.32;;;;;;;;;;5066805;28;20028;-73
2022/12/14 01:30:32;;;;;;;86.72;72.60;;;;;;;;;;5062880;28;20406;-73
2022/12/14 01:32:59;;;;;;;87.35;77.22;;;;;;;;;;5063341;28;20799;-73
2022/12/14 01:35:24;;;;;;;94.68;79.82;;;;;;;;;;5065403;28;20081;-73
2022/12/14 01:37:50;;;;;;;106.57;92.50;;;;;;;;;;5061224;28;20419;-77
2022/12/14 01:40:15;;;;;;;140.00;110.68;;;;;;;;;;5070817;28;20036;-74
2022/12/14 01:42:41;;;;;;;131.32;106.78;;;;;;;;;;5071197;28;20032;-77
2022/12/14 01:45:15;;;;;;;143.25;115.85;;;;;;;;;;5071748;28;20572;-75
2022/12/14 01:47:42;;;;;;;147.32;118.32;;;;;;;;;;5069512;28;20046;-74
2022/12/14 01:50:07;;;;;;;141.55;119.95;;;;;;;;;;5063294;28;20024;-73
2022/12/14 01:52:33;;;;;;;123.50;106.50;;;;;;;;;;5072518;28;20051;-73
2022/12/14 01:55:03;;;;;;;113.55;97.82;;;;;;;;;;5077644;28;20035;-74
2022/12/14 01:57:42;;;;;;;108.60;93.60;;;;;;;;;;5071894;28;20036;-73
2022/12/14 02:00:09;;;;;;;103.32;91.40;;;;;;;;;;5064576;28;20047;-73
2022/12/14 02:02:36;;;;;;;97.47;85.72;;;;;;;;;;5066887;28;20459;-74
2022/12/14 02:05:02;;;;;;;105.15;92.72;;;;;;;;;;5039865;28;20028;-74
2022/12/14 02:07:28;;;;;;;88.80;79.25;;;;;;;;;;5069760;28;21632;-73
2022/12/14 02:09:56;;;;;;;84.80;75.78;;;;;;;;;;5064765;28;20032;-75
2022/12/14 02:12:26;;;;;;;78.55;69.97;;;;;;;;;;5068964;28;20033;-74
2022/12/14 02:14:51;;;;;;;;;;;;;;;;;;5076167;28;20124;-77
2022/12/14 02:17:18;;;;;;;73.77;65.00;;;;;;;;;;5068135;28;19962;-74
2022/12/14 02:19:45;;;;;;;81.85;72.90;;;;;;;;;;5062571;28;20263;-76
2022/12/14 02:22:29;;;;;;;91.47;77.43;;;;;;;;;;5056420;28;20026;-74
2022/12/14 02:25:13;;;;;;;78.40;69.82;;;;;;;;;;5071025;28;20166;-76
2022/12/14 02:27:57;;;;;;;73.10;63.17;;;;;;;;;;5070534;28;20028;-73
2022/12/14 02:30:24;;;;;;;69.45;60.70;;;;;;;;;;5070301;28;20106;-74
2022/12/14 02:32:58;;;;;;;74.03;64.53;;;;;;;;;;5078578;28;20386;-76
2022/12/14 02:35:41;;;;;;;65.72;58.33;;;;;;;;;;5077547;28;20048;-73
2022/12/14 02:38:06;;;;;;;62.22;55.47;;;;;;;;;;5078634;28;20024;-73
2022/12/14 02:40:37;;;;;;;70.47;62.95;;;;;;;;;;5077441;28;20123;-73
2022/12/14 02:43:23;;;;;;;66.05;58.72;;;;;;;;;;5069801;28;20025;-73
2022/12/14 02:46:00;;;;;;;65.57;57.53;;;;;;;;;;5066810;28;20035;-73
2022/12/14 02:48:28;;;;;;;63.28;56.33;;;;;;;;;;5074999;28;20066;-74
2022/12/14 02:50:53;;;;;;;62.38;55.25;;;;;;;;;;5076531;28;20103;-73
2022/12/14 02:53:24;;;;;;;87.28;77.68;;;;;;;;;;5076792;28;20123;-73
2022/12/14 02:55:50;;;;;;;75.05;63.95;;;;;;;;;;5058993;28;20447;-73
2022/12/14 02:58:28;;;;;;;74.95;62.83;;;;;;;;;;5044843;28;20122;-77
2022/12/14 03:00:54;;;;;;;67.13;58.35;;;;;;;;;;5077894;28;20029;-76
2022/12/14 03:03:19;;;;;;;71.80;62.47;;;;;;;;;;5075946;28;20040;-72
2022/12/14 03:05:55;;;;;;;69.40;60.50;;;;;;;;;;5076249;28;20028;-78
2022/12/14 03:08:21;;;;;;;70.38;59.60;;;;;;;;;;5075286;28;20097;-79
2022/12/14 03:10:49;;;;;;;67.70;57.15;;;;;;;;;;5076451;28;20393;-75
2022/12/14 03:13:34;;;;;;;61.92;52.80;;;;;;;;;;5075111;28;20040;-75
2022/12/14 03:16:04;;;;;;;62.47;53.63;;;;;;;;;;5075276;28;20461;-78
2022/12/14 03:18:35;;;;;;;62.08;53.03;;;;;;;;;;5042852;28;20123;-76
2022/12/14 03:21:01;;;;;;;67.32;59.55;;;;;;;;;;5056227;28;20039;-73
2022/12/14 03:23:30;;;;;;;68.72;61.28;;;;;;;;;;5078470;28;20497;-76
2022/12/14 03:25:57;;;;;;;62.78;56.00;;;;;;;;;;5077990;28;20052;-76
2022/12/14 03:28:44;;;;;;;56.22;50.22;;;;;;;;;;5077365;28;20489;-74
2022/12/14 03:31:39;;;;;;;54.42;48.53;;;;;;;;;;5076418;28;20028;-74
2022/12/14 03:34:07;;;;;;;61.70;50.47;;;;;;;;;;5059420;28;20058;-74
2022/12/14 03:36:41;;;;;;;54.30;47.55;;;;;;;;;;5072708;28;20116;-73
2022/12/14 03:39:08;;;;;;;55.50;46.65;;;;;;;;;;5075813;28;20056;-77
2022/12/14 03:41:42;;;;;;;54.25;45.58;;;;;;;;;;5073438;28;20466;-75
2022/12/14 03:44:07;;;;;;;47.65;40.63;;;;;;;;;;5059476;28;20036;-74
2022/12/14 03:46:48;;;;;;;44.55;39.70;;;;;;;;;;5078139;28;20027;-77
2022/12/14 03:49:30;;;;;;;40.65;36.03;;;;;;;;;;5076627;28;20028;-73
2022/12/14 03:52:01;;;;;;;39.00;34.30;;;;;;;;;;5077030;28;20042;-73
2022/12/14 03:54:36;;;;;;;36.47;32.53;;;;;;;;;;5075642;28;20095;-74
2022/12/14 03:57:05;;;;;;;35.80;31.23;;;;;;;;;;5076126;28;20070;-73
2022/12/14 03:59:30;;;;;;;36.08;32.17;;;;;;;;;;5074826;28;20439;-73
2022/12/14 04:02:07;;;;;;;36.08;31.98;;;;;;;;;;5075214;28;20035;-73
2022/12/14 04:04:53;;;;;;;36.22;32.25;;;;;;;;;;5079024;28;20032;-76
2022/12/14 04:07:22;;;;;;;34.90;31.20;;;;;;;;;;5074717;28;20032;-73
2022/12/14 04:09:54;;;;;;;50.53;44.05;;;;;;;;;;5074954;28;20063;-76
2022/12/14 04:21:04;;;;;;;58.92;50.88;;;;;;;;;;5064596;28;20028;-74
2022/12/14 04:26:25;;;;;;;57.83;50.67;;;;;;;;;;5076169;28;20405;-75
2022/12/14 04:31:40;;;;;;;59.47;51.08;;;;;;;;;;5079404;28;20042;-74
2022/12/14 04:34:05;;;;;;;71.57;59.45;;;;;;;;;;5077859;28;20024;-73
2022/12/14 04:36:45;;;;;;;69.47;58.75;;;;;;;;;;5078734;28;20081;-76
2022/12/14 04:39:16;;;;;;;76.13;67.20;;;;;;;;;;5081527;28;20540;-74
2022/12/14 04:41:43;;;;;;;115.07;95.63;;;;;;;;;;5067734;28;20043;-76
2022/12/14 04:44:12;;;;;;;80.63;71.15;;;;;;;;;;5073634;28;20028;-74
2022/12/14 04:46:39;;;;;;;91.78;78.00;;;;;;;;;;5076429;28;20451;-75
2022/12/14 04:49:15;;;;;;;82.10;65.53;;;;;;;;;;5080453;28;20016;-73
2022/12/14 04:51:53;;;;;;;86.10;69.95;;;;;;;;;;5080031;28;20032;-74
2022/12/14 04:54:26;;;;;;;63.50;51.70;;;;;;;;;;5078858;28;20062;-74
2022/12/14 04:56:51;;;;;;;59.38;47.35;;;;;;;;;;5075731;28;20123;-76
2022/12/14 04:59:16;;;;;;;82.72;67.15;;;;;;;;;;5080430;28;20123;-75
2022/12/14 05:01:49;;;;;;;55.92;49.38;;;;;;;;;;5079036;28;20035;-74
2022/12/14 05:04:21;;;;;;;49.08;42.22;;;;;;;;;;5076152;28;20077;-74
2022/12/14 05:06:49;;;;;;;56.13;49.83;;;;;;;;;;5078660;28;20038;-74
2022/12/14 05:09:24;;;;;;;56.83;49.70;;;;;;;;;;5077163;28;20372;-74
2022/12/14 05:12:01;;;;;;;54.22;47.25;;;;;;;;;;5070793;28;20050;-75
2022/12/14 05:14:35;;;;;;;54.15;45.83;;;;;;;;;;5063193;28;20139;-80
2022/12/14 05:17:02;;;;;;;48.85;42.00;;;;;;;;;;5061326;28;20025;-74
2022/12/14 05:19:28;;;;;;;62.05;49.85;;;;;;;;;;5074819;28;20450;-78
2022/12/14 05:21:53;;;;;;;61.45;49.80;;;;;;;;;;5080891;28;20032;-75
2022/12/14 05:24:18;;;;;;;70.43;55.80;;;;;;;;;;5077004;28;20036;-74
2022/12/14 05:26:44;;;;;;;73.70;58.75;;;;;;;;;;5075389;28;20024;-78
2022/12/14 05:29:09;;;;;;;64.15;52.45;;;;;;;;;;5076751;28;20059;-75
2022/12/14 05:31:35;;;;;;;68.45;55.47;;;;;;;;;;5077924;28;20027;-73
2022/12/14 05:34:00;;;;;;;67.30;56.28;;;;;;;;;;5056082;28;20451;-76
2022/12/14 05:36:25;;;;;;;63.85;50.38;;;;;;;;;;5054861;28;20029;-73
2022/12/14 05:38:51;;;;;;;54.45;45.15;;;;;;;;;;5055330;28;20033;-75
2022/12/14 05:41:16;;;;;;;48.15;41.17;;;;;;;;;;5054544;28;20036;-75
2022/12/14 05:43:41;;;;;;;38.70;34.53;;;;;;;;;;5052053;28;20152;-73
2022/12/14 05:46:08;;;;;;;40.05;34.35;;;;;;;;;;5060362;28;20025;-77
2022/12/14 05:48:34;;;;;;;31.08;27.52;;;;;;;;;;5073590;28;21478;-75
2022/12/14 05:51:09;;;;;;;30.65;25.42;;;;;;;;;;5068260;28;20035;-74
2022/12/14 05:53:35;;;;;;;23.25;20.73;;;;;;;;;;5074625;28;20036;-75
2022/12/14 05:56:00;;;;;;;20.30;18.10;;;;;;;;;;5060717;28;20070;-75
2022/12/14 05:58:26;;;;;;;18.40;16.50;;;;;;;;;;5078778;28;20020;-81
2022/12/14 06:00:51;;;;;;;19.90;17.83;;;;;;;;;;5076422;28;20055;-73
2022/12/14 06:03:16;;;;;;;21.40;18.70;;;;;;;;;;5076712;28;20035;-76
2022/12/14 06:05:42;;;;;;;492.90;292.02;;;;;;;;;;5055976;28;20081;-79
2022/12/14 06:08:07;;;;;;;130.85;78.15;;;;;;;;;;5054329;28;20478;-77
2022/12/14 06:10:32;;;;;;;75.05;46.42;;;;;;;;;;5072803;28;20047;-75
2022/12/14 06:12:58;;;;;;;21.58;17.50;;;;;;;;;;5075895;28;20060;-78
2022/12/14 06:15:23;;;;;;;39.25;26.98;;;;;;;;;;5061677;28;20032;-78
2022/12/14 06:17:49;;;;;;;782.20;547.63;;;;;;;;;;5068025;28;20016;-73
2022/12/14 06:20:14;;;;;;;364.52;233.63;;;;;;;;;;5057088;28;20087;-75
2022/12/14 06:22:40;;;;;;;201.00;137.23;;;;;;;;;;5076438;28;20031;-75
2022/12/14 06:25:06;;;;;;;59.55;43.47;;;;;;;;;;5069869;28;20035;-76
2022/12/14 06:27:31;;;;;;;61.05;46.17;;;;;;;;;;5068733;28;20032;-75
2022/12/14 06:29:57;;;;;;;82.07;63.22;;;;;;;;;;5075275;28;20024;-77
2022/12/14 06:32:22;;;;;;;101.88;81.75;;;;;;;;;;5074648;28;20135;-77
2022/12/14 06:34:48;;;;;;;56.60;47.40;;;;;;;;;;5062750;28;20039;-75
2022/12/14 06:37:13;;;;;;;45.22;38.33;;;;;;;;;;5054074;28;20514;-76
2022/12/14 06:39:39;;;;;;;79.05;65.43;;;;;;;;;;5070551;28;20702;-75
2022/12/14 06:42:04;;;;;;;78.88;61.53;;;;;;;;;;5079619;28;20026;-75
2022/12/14 06:44:30;;;;;;;40.45;33.03;;;;;;;;;;5076270;28;20035;-75
2022/12/14 06:46:55;;;;;;;90.03;62.00;;;;;;;;;;5073295;28;20733;-75
2022/12/14 06:49:21;;;;;;;325.38;204.75;;;;;;;;;;5072996;28;20397;-74
2022/12/14 06:51:46;;;;;;;176.93;121.85;;;;;;;;;;5065716;28;20020;-76
2022/12/14 06:54:12;;;;;;;80.57;60.20;;;;;;;;;;5077001;28;20028;-74
2022/12/14 06:56:38;;;;;;;135.43;99.68;;;;;;;;;;5075747;28;21062;-74
2022/12/14 06:59:04;;;;;;;98.03;72.75;;;;;;;;;;5079574;28;20601;-74
2022/12/14 07:01:29;;;;;;;62.53;48.38;;;;;;;;;;5076068;28;20094;-75
2022/12/14 07:03:56;;;;;;;65.57;49.15;;;;;;;;;;5074798;28;20017;-74
2022/12/14 07:06:22;;;;;;;78.25;58.22;;;;;;;;;;5075525;28;20024;-75
2022/12/14 07:08:48;;;;;;;157.98;105.55;;;;;;;;;;5076064;28;20016;-74
2022/12/14 07:11:14;;;;;;;74.00;58.50;;;;;;;;;;5074383;28;20348;-74
2022/12/14 07:13:40;;;;;;;73.25;55.35;;;;;;;;;;5078115;28;20105;-74
2022/12/14 07:16:06;;;;;;;51.88;41.80;;;;;;;;;;5077222;28;20427;-77
2022/12/14 07:18:32;;;;;;;64.85;47.67;;;;;;;;;;5077299;28;20040;-75
2022/12/14 07:20:59;;;;;;;82.75;58.40;;;;;;;;;;5074817;28;20024;-75
2022/12/14 07:23:25;;;;;;;35.33;31.38;;;;;;;;;;5055249;28;20409;-74
2022/12/14 07:25:51;;;;;;;112.97;78.03;;;;;;;;;;5076028;28;20035;-75
2022/12/14 07:28:17;;;;;;;47.58;36.45;;;;;;;;;;5077705;28;20459;-77
2022/12/14 07:30:42;;;;;;;152.00;100.10;;;;;;;;;;5076633;28;20028;-75
2022/12/14 07:33:07;;;;;;;80.18;55.30;;;;;;;;;;5076982;28;20475;-76
2022/12/14 07:35:33;;;;;;;48.50;38.33;;;;;;;;;;5075833;28;20347;-76
2022/12/14 07:37:58;;;;;;;35.20;31.00;;;;;;;;;;5078097;28;20110;-76
2022/12/14 07:40:23;;;;;;;59.78;44.42;;;;;;;;;;5076822;28;20023;-76
2022/12/14 07:42:49;;;;;;;78.15;58.92;;;;;;;;;;5076848;28;20024;-78
2022/12/14 07:45:14;;;;;;;65.60;53.15;;;;;;;;;;5073780;28;20027;-73
2022/12/14 07:47:40;;;;;;;87.07;68.43;;;;;;;;;;5075533;28;20034;-75
2022/12/14 07:50:05;;;;;;;111.22;88.00;;;;;;;;;;5075551;28;20024;-76
2022/12/14 07:52:31;;;;;;;61.78;52.55;;;;;;;;;;5077420;28;20144;-76
2022/12/14 07:54:56;;;;;;;47.65;39.88;;;;;;;;;;5079178;28;20044;-74
2022/12/14 07:57:21;;;;;;;50.38;42.22;;;;;;;;;;5062267;28;20032;-77
2022/12/14 07:59:47;;;;;;;59.30;48.90;;;;;;;;;;5082115;28;20024;-75
2022/12/14 08:02:12;;;;;;;85.10;67.30;;;;;;;;;;5078405;28;20052;-76
2022/12/14 08:04:38;;;;;;;117.68;96.05;;;;;;;;;;5078715;28;20039;-75
2022/12/14 08:07:03;;;;;;;113.18;91.50;;;;;;;;;;5063387;28;20024;-75
2022/12/14 08:09:29;;;;;;;81.88;68.95;;;;;;;;;;5081056;28;20029;-77
2022/12/14 08:11:54;;;;;;;100.90;85.35;;;;;;;;;;5077899;28;20031;-75
2022/12/14 08:14:19;;;;;;;69.47;56.80;;;;;;;;;;5079311;28;20052;-75
2022/12/14 08:16:45;;;;;;;38.22;32.70;;;;;;;;;;5079040;28;20103;-77
2022/12/14 08:19:11;;;;;;;45.05;39.42;;;;;;;;;;5080347;28;20086;-76
2022/12/14 08:21:37;;;;;;;55.95;49.53;;;;;;;;;;5077691;28;20024;-75
2022/12/14 08:24:03;;;;;;;63.53;51.05;;;;;;;;;;5081340;28;20462;-75
2022/12/14 08:26:29;;;;;;;46.55;37.97;;;;;;;;;;5080367;28;20024;-76
2022/12/14 08:28:54;;;;;;;66.82;59.00;;;;;;;;;;5079213;28;20032;-76
2022/12/14 08:31:21;;;;;;;69.38;57.25;;;;;;;;;;5078544;28;20054;-76
2022/12/14 08:33:47;;;;;;;42.03;35.17;;;;;;;;;;5079953;28;20040;-76
2022/12/14 08:36:13;;;;;;;96.90;71.68;;;;;;;;;;5079515;28;20469;-75
2022/12/14 08:38:39;;;;;;;49.80;41.28;;;;;;;;;;5075751;28;20562;-76
2022/12/14 08:41:06;;;;;;;62.63;51.58;;;;;;;;;;5081614;28;20107;-77
2022/12/14 08:43:31;;;;;;;35.13;31.17;;;;;;;;;;5082472;28;20747;-77
2022/12/14 08:45:57;;;;;;;57.17;49.58;;;;;;;;;;5078929;28;20410;-75
2022/12/14 08:48:23;;;;;;;41.22;36.72;;;;;;;;;;5079550;28;20031;-76
2022/12/14 08:50:48;;;;;;;32.33;28.73;;;;;;;;;;5079357;28;20116;-77
2022/12/14 08:53:14;;;;;;;26.15;23.27;;;;;;;;;;5080731;28;20119;-75
2022/12/14 08:55:39;;;;;;;96.72;68.57;;;;;;;;;;5078250;28;20028;-76
2022/12/14 08:58:04;;;;;;;46.33;38.30;;;;;;;;;;5062780;28;20439;-77
2022/12/14 09:00:30;;;;;;;80.90;61.22;;;;;;;;;;5078564;28;20039;-75
2022/12/14 09:02:55;;;;;;;93.32;67.65;;;;;;;;;;5076226;28;20114;-76
2022/12/14 09:05:20;;;;;;;25.90;23.17;;;;;;;;;;5078665;28;20070;-75
2022/12/14 09:07:46;;;;;;;27.17;23.20;;;;;;;;;;5078891;28;20059;-76
2022/12/14 09:10:11;;;;;;;78.50;60.53;;;;;;;;;;5080085;28;20910;-76
2022/12/14 09:12:37;;;;;;;46.78;37.85;;;;;;;;;;5079909;28;20358;-74
2022/12/14 09:15:02;;;;;;;35.53;30.85;;;;;;;;;;5076731;28;20037;-75
2022/12/14 09:17:28;;;;;;;97.82;79.05;;;;;;;;;;5076434;28;20032;-76
2022/12/14 09:19:53;;;;;;;25.35;22.02;;;;;;;;;;5079295;28;20503;-75
2022/12/14 09:22:18;;;;;;;21.10;18.88;;;;;;;;;;5079191;28;20369;-78
2022/12/14 09:24:44;;;;;;;31.85;26.48;;;;;;;;;;5079528;28;20036;-76
2022/12/14 09:27:09;;;;;;;53.55;48.17;;;;;;;;;;5062082;28;20220;-75
2022/12/14 09:29:35;;;;;;;29.95;26.80;;;;;;;;;;5078385;28;21085;-75
2022/12/14 09:32:00;;;;;;;28.58;25.45;;;;;;;;;;5079180;28;20085;-78
2022/12/14 09:34:25;;;;;;;45.38;36.25;;;;;;;;;;5078492;28;20067;-77
2022/12/14 09:36:51;;;;;;;77.88;61.42;;;;;;;;;;5078058;28;20047;-76
2022/12/14 09:39:17;;;;;;;39.67;34.45;;;;;;;;;;5076450;28;20446;-78
2022/12/14 09:42:01;;;;;;;49.22;40.17;;;;;;;;;;5077321;28;20028;-78
2022/12/14 09:44:38;;;;;;;151.50;91.07;;;;;;;;;;5079587;28;20038;-76
2022/12/14 09:47:22;;;;;;;46.78;35.67;;;;;;;;;;5078165;28;20039;-78
2022/12/14 09:49:51;;;;;;;47.65;32.47;;;;;;;;;;5077319;28;20097;-77
2022/12/14 09:52:33;;;;;;;47.30;37.10;;;;;;;;;;5077707;28;20093;-78
2022/12/14 09:54:59;;;;;;;103.30;70.45;;;;;;;;;;5080166;28;20032;-76
2022/12/14 09:57:38;;;;;;;39.58;30.48;;;;;;;;;;5075871;28;20090;-75
2022/12/14 10:00:09;;;;;;;65.90;42.78;;;;;;;;;;5076631;28;20119;-76
2022/12/14 10:02:57;;;;;;;71.22;49.53;;;;;;;;;;5076916;28;20032;-75
2022/12/14 10:05:31;;;;;;;72.63;64.80;;;;;;;;;;5079886;28;21132;-76
2022/12/14 10:08:01;;;;;;;75.95;54.40;;;;;;;;;;5076814;28;20031;-77
2022/12/14 10:10:35;;;;;;;35.90;30.40;;;;;;;;;;5060061;28;20110;-74
2022/12/14 10:13:19;;;;;;;59.80;44.00;;;;;;;;;;5078134;28;20576;-75
2022/12/14 10:15:53;;;;;;;52.50;37.60;;;;;;;;;;5078249;28;20024;-77
2022/12/14 10:18:27;;;;;;;30.52;25.83;;;;;;;;;;5078651;28;20059;-76
2022/12/14 10:21:01;;;;;;;32.40;27.83;;;;;;;;;;5077723;28;20028;-76
2022/12/14 10:23:26;;;;;;;36.78;28.20;;;;;;;;;;5058699;28;20032;-76
2022/12/14 10:25:58;;;;;;;38.30;31.35;;;;;;;;;;5075711;28;20500;-77
2022/12/14 10:28:36;;;;;;;43.72;33.70;;;;;;;;;;5077484;28;20024;-77
2022/12/14 10:31:05;;;;;;;47.00;35.60;;;;;;;;;;5076941;28;20055;-75
2022/12/14 10:33:30;;;;;;;38.97;29.83;;;;;;;;;;5075966;28;20035;-76
2022/12/14 10:35:56;;;;;;;43.25;34.33;;;;;;;;;;5060907;28;20036;-76
2022/12/14 10:38:24;;;;;;;33.50;28.60;;;;;;;;;;5079710;28;20034;-76
2022/12/14 10:40:51;;;;;;;42.90;36.30;;;;;;;;;;5076477;28;20031;-75
2022/12/14 10:43:25;;;;;;;35.13;30.30;;;;;;;;;;5061323;28;20347;-76
2022/12/14 10:45:57;;;;;;;31.13;26.77;;;;;;;;;;5076602;28;20029;-75
2022/12/14 10:48:39;;;;;;;51.22;41.08;;;;;;;;;;5075793;28;20048;-77
2022/12/14 10:51:17;;;;;;;38.75;33.25;;;;;;;;;;5076008;28;20032;-78
2022/12/14 10:53:46;;;;;;;29.40;26.20;;;;;;;;;;5079531;28;20103;-77
2022/12/14 10:56:15;;;;;;;33.83;27.13;;;;;;;;;;5077808;28;20024;-76
2022/12/14 10:58:40;;;;;;;51.85;45.20;;;;;;;;;;5076190;28;20378;-76
2022/12/14 11:01:10;;;;;;;41.63;36.97;;;;;;;;;;5078269;28;20016;-77
2022/12/14 11:03:35;;;;;;;;;;;;;;;;;;5078353;28;20032;-76
2022/12/14 11:06:13;;;;;;;44.87;36.77;;;;;;;;;;5076810;28;20571;-79
2022/12/14 11:08:43;;;;;;;34.55;29.17;;;;;;;;;;5077282;28;20466;-77
2022/12/14 11:11:28;;;;;;;24.70;22.08;;;;;;;;;;5074371;28;20153;-75
2022/12/14 11:14:06;;;;;;;43.83;35.08;;;;;;;;;;5077659;28;20090;-77
2022/12/14 11:16:36;;;;;;;35.10;29.70;;;;;;;;;;5075837;28;20028;-77
2022/12/14 11:19:02;;;;;;;79.30;56.33;;;;;;;;;;5077481;28;20027;-78
2022/12/14 11:21:32;;;;;;;48.20;39.78;;;;;;;;;;5076160;28;20066;-76
2022/12/14 11:23:57;;;;;;;35.85;30.45;;;;;;;;;;5079869;28;20367;-76
2022/12/14 11:26:28;;;;;;;49.67;40.50;;;;;;;;;;5078074;28;20054;-76
2022/12/14 11:28:55;;;;;;;62.42;50.65;;;;;;;;;;5075677;28;20039;-78
2022/12/14 11:31:35;;;;;;;37.38;30.92;;;;;;;;;;5081816;28;20032;-76
2022/12/14 11:34:02;;;;;;;36.65;30.17;;;;;;;;;;5079559;28;20036;-78
2022/12/14 11:36:33;;;;;;;35.65;31.52;;;;;;;;;;5081462;28;20028;-78
2022/12/14 11:38:59;;;;;;;39.05;33.47;;;;;;;;;;5080749;28;20027;-77
2022/12/14 11:41:33;;;;;;;42.60;36.72;;;;;;;;;;5080682;28;20085;-77
2022/12/14 11:44:03;;;;;;;49.50;43.10;;;;;;;;;;5080713;28;20032;-77
2022/12/14 11:46:55;;;;;;;75.32;57.97;;;;;;;;;;5083957;28;20109;-76
2022/12/14 11:49:20;;;;;;;47.67;41.67;;;;;;;;;;4996235;28;20145;-77
2022/12/14 11:51:54;;;;;;;68.95;58.05;;;;;;;;;;4999987;28;20489;-77
2022/12/14 11:54:20;;;;;;;49.08;42.15;;;;;;;;;;4997447;28;20152;-78
2022/12/14 11:56:48;;;;;;;50.08;40.92;;;;;;;;;;4998619;28;20100;-78
2022/12/14 11:59:14;;;;;;;82.10;65.60;;;;;;;;;;4998460;28;20033;-76
2022/12/14 12:01:41;;;;;;;66.38;52.30;;;;;;;;;;5000274;28;20030;-77
2022/12/14 12:04:11;;;;;;;44.53;38.35;;;;;;;;;;5000112;28;20362;-77
2022/12/14 12:06:36;;;;;;;;;;;;;;;;;;4999827;28;20092;-77
2022/12/14 12:09:08;;;;;;;25.47;22.77;;;;;;;;;;4999818;28;19913;-77
2022/12/14 12:11:33;;;;;;;29.35;26.15;;;;;;;;;;5000244;28;20270;-76
2022/12/14 12:14:31;;;;;;;31.02;27.73;;;;;;;;;;4997657;28;20241;-77
2022/12/14 12:16:57;;;;;;;31.55;26.63;;;;;;;;;;4902884;29;20036;-77
2022/12/14 12:19:33;;;;;;;51.20;41.10;;;;;;;;;;4900427;29;20059;-77
2022/12/14 12:22:00;;;;;;;39.20;34.92;;;;;;;;;;4903548;29;20036;-77
2022/12/14 12:24:29;;;;;;;27.48;24.48;;;;;;;;;;4899254;29;20183;-77
2022/12/14 12:26:59;;;;;;;42.00;34.40;;;;;;;;;;4948907;28;20093;-78
2022/12/14 12:29:24;;;;;;;;;;;;;;;;;;4960999;28;21052;-77
2022/12/14 12:31:56;;;;;;;34.53;30.77;;;;;;;;;;4960667;28;19921;-79
2022/12/14 12:34:24;;;;;;;30.20;27.10;;;;;;;;;;4961460;28;20410;-77
2022/12/14 12:36:51;;;;;;;54.20;43.78;;;;;;;;;;4959453;28;20199;-80
2022/12/14 12:39:19;;;;;;;34.35;28.90;;;;;;;;;;4960697;28;20126;-77
2022/12/14 12:42:03;;;;;;;31.20;27.80;;;;;;;;;;4958307;28;20030;-77
2022/12/14 12:44:47;;;;;;;31.05;27.67;;;;;;;;;;4959014;28;20050;-78
2022/12/14 12:47:16;;;;;;;43.33;36.75;;;;;;;;;;4962518;28;20454;-76
2022/12/14 12:49:41;;;;;;;36.42;31.88;;;;;;;;;;4961130;28;20045;-77
2022/12/14 12:52:27;;;;;;;41.60;34.15;;;;;;;;;;4998148;28;20037;-76
2022/12/14 12:54:59;;;;;;;68.13;51.65;;;;;;;;;;5073654;28;20079;-79
2022/12/14 12:57:27;;;;;;;56.38;43.95;;;;;;;;;;5078510;28;20027;-76
2022/12/14 12:59:54;;;;;;;56.72;43.60;;;;;;;;;;5078722;28;20138;-77
2022/12/14 13:02:39;;;;;;;98.40;67.70;;;;;;;;;;5078747;28;20436;-78
2022/12/14 13:05:10;;;;;;;101.63;71.70;;;;;;;;;;5079264;28;20069;-77
2022/12/14 13:07:37;;;;;;;61.60;47.03;;;;;;;;;;5078803;28;20461;-77
2022/12/14 13:10:05;;;;;;;47.22;40.25;;;;;;;;;;5080554;28;20028;-77
2022/12/14 13:12:57;;;;;;;47.63;38.15;;;;;;;;;;5081534;28;20064;-76
2022/12/14 13:15:27;;;;;;;44.10;36.40;;;;;;;;;;5001176;28;20504;-77
2022/12/14 13:17:56;;;;;;;52.90;43.72;;;;;;;;;;4999781;28;20535;-77
2022/12/14 13:20:26;;;;;;;50.57;42.17;;;;;;;;;;5000047;28;20049;-77
2022/12/14 13:22:52;;;;;;;32.05;27.95;;;;;;;;;;4982675;28;20030;-77
2022/12/14 13:25:21;;;;;;;31.75;28.38;;;;;;;;;;4984137;28;20041;-76
2022/12/14 13:28:12;;;;;;;37.10;32.13;;;;;;;;;;4994193;28;20065;-78
2022/12/14 13:30:42;;;;;;;35.95;30.35;;;;;;;;;;4992706;28;20033;-77
2022/12/14 13:33:22;;;;;;;35.00;31.23;;;;;;;;;;4993735;28;20544;-78
2022/12/14 13:35:50;;;;;;;34.28;30.60;;;;;;;;;;4985068;28;20042;-78
2022/12/14 13:38:18;;;;;;;31.67;28.38;;;;;;;;;;4983064;28;20030;-77
2022/12/14 13:40:53;;;;;;;29.10;26.13;;;;;;;;;;4978290;28;20096;-77
2022/12/14 13:43:33;;;;;;;28.45;25.63;;;;;;;;;;4988414;28;20029;-75
2022/12/14 13:46:06;;;;;;;26.90;23.98;;;;;;;;;;4983022;28;20049;-77
2022/12/14 13:48:36;;;;;;;65.40;53.10;;;;;;;;;;4982973;28;20030;-75
2022/12/14 13:51:03;;;;;;;43.88;38.63;;;;;;;;;;4984377;28;20026;-75
2022/12/14 13:53:53;;;;;;;30.83;26.95;;;;;;;;;;5062882;28;20366;-76
2022/12/14 13:56:23;;;;;;;39.88;35.60;;;;;;;;;;5064789;28;20115;-76
2022/12/14 13:58:49;;;;;;;27.58;24.55;;;;;;;;;;5062765;28;20047;-78
2022/12/14 14:01:35;;;;;;;29.63;26.52;;;;;;;;;;5059727;28;20051;-76
2022/12/14 14:04:09;;;;;;;28.63;25.52;;;;;;;;;;5045977;28;20372;-76
2022/12/14 14:06:35;;;;;;;26.92;24.02;;;;;;;;;;5065918;28;20439;-76
2022/12/14 14:09:20;;;;;;;27.67;24.75;;;;;;;;;;5076503;28;20033;-77
2022/12/14 14:11:54;;;;;;;26.15;23.35;;;;;;;;;;5078650;28;20093;-76
2022/12/14 14:14:27;;;;;;;28.83;25.80;;;;;;;;;;5076829;28;20114;-76
2022/12/14 14:16:54;;;;;;;37.58;33.47;;;;;;;;;;5061886;28;20195;-76
2022/12/14 14:19:21;;;;;;;43.92;38.38;;;;;;;;;;5061129;28;20103;-77
2022/12/14 14:22:05;;;;;;;36.65;32.75;;;;;;;;;;5058712;28;20350;-76
2022/12/14 14:24:49;;;;;;;29.05;26.05;;;;;;;;;;5056641;28;20332;-75
2022/12/14 14:27:19;;;;;;;48.90;39.97;;;;;;;;;;5078384;28;20051;-76
2022/12/14 14:29:48;;;;;;;84.25;70.38;;;;;;;;;;5068618;28;20055;-78
2022/12/14 14:32:26;;;;;;;96.70;79.38;;;;;;;;;;5072649;28;20035;-72
2022/12/14 14:34:52;;;;;;;59.55;49.72;;;;;;;;;;5064757;28;20697;-75
2022/12/14 14:37:20;;;;;;;56.53;46.22;;;;;;;;;;5066606;28;20028;-74
2022/12/14 14:39:58;;;;;;;65.63;54.70;;;;;;;;;;5073763;28;20027;-74
2022/12/14 14:42:25;;;;;;;74.95;62.53;;;;;;;;;;5080065;28;20020;-76